Time;durP1;ratioP1;P1;durP2;ratioP2;P2;SDS_P1;SDS_P2;PMS_P1;PMS_P2;Temp;Humidity;BMP_temperature;BMP_pressure;BME280_temperature;BME280_humidity;BME280_pressure;Samples;Min_cycle;Max_cycle;Signal;HPM_P1;HPM_P2
2021/03/01 00:02:22;;;;;;;11.93;8.27;;;;;;;-2.25;86.60;100951.00;5023759;28;20226;-88
2021/03/01 00:05:07;;;;;;;11.80;7.80;;;;;;;-2.12;86.48;100981.66;5017763;28;20221;-93
2021/03/01 00:07:45;;;;;;;12.63;8.37;;;;;;;-2.37;87.19;100943.94;5042674;28;20221;-89
2021/03/01 00:10:37;;;;;;;12.40;8.20;;;;;;;-2.26;87.37;100972.94;5056228;28;20221;-89
2021/03/01 00:13:22;;;;;;;12.50;8.47;;;;;;;-2.35;87.31;100951.72;5057974;28;20290;-89
2021/03/01 00:16:10;;;;;;;12.77;8.60;;;;;;;-2.26;87.14;100977.34;5040098;28;20308;-95
2021/03/01 00:19:00;;;;;;;11.30;8.17;;;;;;;-2.49;87.43;100929.06;5042992;28;20225;-90
2021/03/01 00:21:55;;;;;;;12.30;8.20;;;;;;;-2.44;87.80;100958.44;5058022;28;20576;-95
2021/03/01 00:24:50;;;;;;;13.37;7.87;;;;;;;-2.52;87.63;100955.47;5042147;28;20345;-92
2021/03/01 00:27:35;;;;;;;14.40;7.90;;;;;;;-2.60;87.47;100935.97;5057228;28;20336;-94
2021/03/01 00:30:27;;;;;;;12.33;8.47;;;;;;;-2.52;87.81;100959.91;5028521;28;20218;-92
2021/03/01 00:33:10;;;;;;;11.40;8.00;;;;;;;-2.59;87.25;100945.53;5022291;28;20232;-92
2021/03/01 00:36:01;;;;;;;11.57;7.37;;;;;;;-2.48;87.49;100962.22;5053693;28;20251;-92
2021/03/01 00:38:45;;;;;;;11.20;7.90;;;;;;;-2.54;87.87;100960.00;5056508;28;20225;-88
2021/03/01 00:41:28;;;;;;;10.80;7.87;;;;;;;-2.53;87.61;100950.38;5038106;28;20275;-87
2021/03/01 00:44:12;;;;;;;11.93;7.70;;;;;;;-2.53;87.76;100948.59;5036571;28;20254;-88
2021/03/01 00:47:02;;;;;;;16.03;8.50;;;;;;;-2.45;87.92;100958.53;5002614;28;20226;-91
2021/03/01 00:49:40;;;;;;;13.87;7.93;;;;;;;-2.58;87.94;100940.19;5008196;28;20205;-93
2021/03/01 00:52:23;;;;;;;12.03;8.33;;;;;;;-2.51;88.05;100958.94;5056531;28;20244;-93
2021/03/01 00:55:04;;;;;;;12.73;8.50;;;;;;;-2.51;88.21;100944.06;5050804;28;20243;-95
2021/03/01 00:57:44;;;;;;;12.63;8.40;;;;;;;-2.50;88.18;100937.03;5020114;28;20226;-90
2021/03/01 01:00:33;;;;;;;12.23;8.00;;;;;;;-2.43;88.22;100948.78;5015889;28;20269;-90
2021/03/01 01:03:19;;;;;;;10.70;7.70;;;;;;;-2.47;87.94;100944.72;5018892;28;20230;-92
2021/03/01 01:06:05;;;;;;;12.63;8.23;;;;;;;-2.53;88.14;100940.72;5029344;28;20222;-92
2021/03/01 01:08:47;;;;;;;10.23;7.63;;;;;;;-2.63;87.66;100931.78;5020995;28;20247;-86
2021/03/01 01:11:31;;;;;;;12.20;8.07;;;;;;;-2.58;88.14;100931.47;5022393;28;20230;-87
2021/03/01 01:14:22;;;;;;;11.23;8.50;;;;;;;-2.72;88.16;100906.16;5016205;28;20227;-88
2021/03/01 01:17:20;;;;;;;14.60;8.60;;;;;;;-2.63;88.63;100939.66;4983762;28;20239;-87
2021/03/01 01:20:17;;;;;;;11.90;8.83;;;;;;;-2.65;88.47;100938.91;5001788;28;20218;-86
2021/03/01 01:23:13;;;;;;;13.17;8.73;;;;;;;-2.74;88.75;100915.91;5035376;28;20238;-88
2021/03/01 01:25:58;;;;;;;12.47;8.77;;;;;;;-2.91;88.78;100885.59;5026584;28;20277;-91
2021/03/01 01:28:43;;;;;;;12.63;8.97;;;;;;;-2.81;88.79;100914.66;5015625;28;20226;-88
2021/03/01 01:31:20;;;;;;;13.00;8.57;;;;;;;-2.75;88.84;100922.94;5027614;28;20376;-89
2021/03/01 01:34:05;;;;;;;13.60;8.40;;;;;;;-2.90;89.15;100897.75;5035480;28;20231;-88
2021/03/01 01:36:46;;;;;;;13.33;9.07;;;;;;;-2.72;89.01;100929.78;5006034;28;20306;-92
2021/03/01 01:39:22;;;;;;;11.93;7.90;;;;;;;-2.86;88.77;100911.50;5016429;28;20540;-85
2021/03/01 01:42:07;;;;;;;11.87;8.40;;;;;;;-2.95;89.10;100886.75;5031748;28;20322;-92
2021/03/01 01:44:58;;;;;;;12.70;8.00;;;;;;;-2.97;88.86;100886.00;5021852;28;20252;-90
2021/03/01 01:47:48;;;;;;;12.17;8.43;;;;;;;-2.78;89.28;100922.31;4998345;28;20231;-92
2021/03/01 01:50:30;;;;;;;12.63;8.47;;;;;;;-2.84;88.74;100907.81;4999516;28;20237;-86
2021/03/01 01:53:19;;;;;;;12.00;8.80;;;;;;;-2.81;89.15;100910.25;5021297;28;20317;-90
2021/03/01 01:55:54;;;;;;;12.07;8.60;;;;;;;-2.84;89.00;100910.44;4988062;28;20228;-91
2021/03/01 01:58:29;;;;;;;13.63;9.13;;;;;;;-2.83;89.56;100913.91;5018907;28;20625;-90
2021/03/01 02:01:09;;;;;;;14.60;9.83;;;;;;;-2.87;89.40;100902.78;5040634;28;20652;-87
2021/03/01 02:04:04;;;;;;;14.10;9.00;;;;;;;-2.74;89.80;100929.88;5002244;28;20225;-93
2021/03/01 02:07:12;;;;;;;12.70;9.20;;;;;;;-2.71;90.03;100924.41;5033450;28;20299;-87
2021/03/01 02:10:21;;;;;;;12.37;8.37;;;;;;;-2.71;89.74;100918.34;4991583;28;20668;-85
2021/03/01 02:13:33;;;;;;;13.77;9.10;;;;;;;-2.72;90.01;100916.66;5019224;28;20308;-94
2021/03/01 02:16:30;;;;;;;14.03;8.83;;;;;;;-2.75;90.20;100914.22;5012951;28;20224;-91
2021/03/01 02:19:13;;;;;;;14.07;9.40;;;;;;;-2.81;90.09;100909.41;5043408;28;20309;-90
2021/03/01 02:22:00;;;;;;;15.90;9.03;;;;;;;-2.93;90.36;100884.84;5017701;28;20229;-85
2021/03/01 02:25:04;;;;;;;13.50;8.57;;;;;;;-2.88;90.24;100888.00;5023629;28;20226;-89
2021/03/01 02:27:55;;;;;;;14.03;9.07;;;;;;;-2.96;90.17;100887.69;5025176;28;20230;-91
2021/03/01 02:30:50;;;;;;;14.37;9.10;;;;;;;-2.89;90.30;100890.75;5024750;28;20524;-90
2021/03/01 02:33:50;;;;;;;12.47;8.60;;;;;;;-2.96;89.94;100881.59;5019539;28;20591;-90
2021/03/01 02:36:59;;;;;;;12.27;8.83;;;;;;;-2.97;90.33;100887.78;5016096;28;20268;-88
2021/03/01 02:39:53;;;;;;;13.73;8.90;;;;;;;-3.01;90.83;100870.56;5059177;28;20237;-93
2021/03/01 02:42:43;;;;;;;11.70;7.90;;;;;;;-2.95;90.75;100902.47;5046107;28;20298;-90
2021/03/01 02:45:39;;;;;;;13.03;8.53;;;;;;;-2.91;90.19;100900.47;5038814;28;20229;-90
2021/03/01 02:48:34;;;;;;;15.27;9.33;;;;;;;-2.92;90.50;100919.78;5040706;28;20698;-90
2021/03/01 02:51:23;;;;;;;14.07;8.27;;;;;;;-3.01;90.83;100900.25;5026557;28;20225;-89
2021/03/01 02:54:11;;;;;;;12.27;9.13;;;;;;;-3.17;90.94;100887.31;5037963;28;20234;-92
2021/03/01 02:57:12;;;;;;;13.97;9.07;;;;;;;-2.93;90.71;100911.06;5008326;28;20287;-89
2021/03/01 03:00:04;;;;;;;14.43;9.67;;;;;;;-3.00;90.84;100901.09;5038158;28;20229;-91
2021/03/01 03:02:48;;;;;;;14.43;9.80;;;;;;;-3.02;91.03;100903.81;5038208;28;20233;-95
2021/03/01 03:05:37;;;;;;;14.60;9.37;;;;;;;-3.12;91.24;100874.75;5038065;28;20301;-92
2021/03/01 03:08:26;;;;;;;14.43;9.50;;;;;;;-2.92;91.48;100910.13;5023533;28;20226;-90
2021/03/01 03:11:18;;;;;;;16.27;9.73;;;;;;;-2.96;91.05;100929.63;5024414;28;20653;-93
2021/03/01 03:14:17;;;;;;;14.53;9.40;;;;;;;-2.88;90.65;100940.44;5001591;28;20554;-93
2021/03/01 03:17:11;;;;;;;14.87;10.03;;;;;;;-2.89;90.60;100949.25;5025024;28;20251;-94
2021/03/01 03:20:09;;;;;;;15.20;10.10;;;;;;;-2.90;91.01;100947.59;5058062;28;20225;-92
2021/03/01 03:23:03;;;;;;;12.80;9.93;;;;;;;-3.09;90.82;100933.16;5032656;28;20248;-95
2021/03/01 03:26:00;;;;;;;13.90;9.20;;;;;;;-2.92;91.06;100961.72;5007526;28;20230;-94
2021/03/01 03:28:52;;;;;;;13.13;9.43;;;;;;;-3.10;90.85;100929.69;5039240;28;20218;-95
2021/03/01 03:31:42;;;;;;;13.93;9.23;;;;;;;-3.18;90.65;100916.28;5026342;28;20234;-92
2021/03/01 03:34:32;;;;;;;15.30;10.23;;;;;;;-3.15;90.90;100927.38;5017745;28;20233;-92
2021/03/01 03:37:37;;;;;;;15.80;10.50;;;;;;;-3.11;90.66;100936.72;5008472;28;20256;-87
2021/03/01 03:40:26;;;;;;;13.43;9.73;;;;;;;-3.15;91.15;100929.16;5042439;28;20247;-92
2021/03/01 03:43:18;;;;;;;17.33;10.47;;;;;;;-3.02;90.75;100968.53;5019481;28;20230;-95
2021/03/01 03:46:16;;;;;;;14.37;10.00;;;;;;;-3.04;91.51;100952.91;5020942;28;20249;-87
2021/03/01 03:49:13;;;;;;;17.73;10.53;;;;;;;-3.04;91.84;100963.41;5019738;28;20222;-94
2021/03/01 03:52:00;;;;;;;16.87;11.17;;;;;;;-3.14;91.86;100950.03;5005431;28;20234;-91
2021/03/01 03:54:55;;;;;;;17.93;10.37;;;;;;;-3.00;92.34;100969.28;4999807;28;20235;-95
2021/03/01 03:57:46;;;;;;;15.73;10.97;;;;;;;-3.12;92.15;100963.88;4988837;28;20230;-93
2021/03/01 04:00:42;;;;;;;17.83;11.07;;;;;;;-2.97;92.19;100974.31;4998610;28;20627;-86
2021/03/01 04:03:39;;;;;;;15.73;10.77;;;;;;;-3.13;92.29;100954.31;5018617;28;20524;-86
2021/03/01 04:06:31;;;;;;;18.60;11.77;;;;;;;-3.18;92.24;100963.47;5040289;28;20222;-93
2021/03/01 04:09:20;;;;;;;19.27;11.77;;;;;;;-3.18;91.66;100972.16;5003657;28;20234;-92
2021/03/01 04:12:08;;;;;;;17.23;11.27;;;;;;;-3.01;91.92;100996.44;5011952;28;20250;-87
2021/03/01 04:15:00;;;;;;;21.37;12.37;;;;;;;-3.22;92.15;100972.47;5038486;28;20262;-93
2021/03/01 04:17:54;;;;;;;18.67;12.03;;;;;;;-3.07;92.30;100996.81;5021109;28;20230;-91
2021/03/01 04:20:48;;;;;;;17.60;12.03;;;;;;;-3.33;92.57;100954.81;5003314;28;20231;-95
2021/03/01 04:23:38;;;;;;;18.23;12.00;;;;;;;-3.13;92.32;100991.03;5017267;28;20226;-89
2021/03/01 04:26:35;;;;;;;19.47;12.30;;;;;;;-3.18;92.91;100987.88;5004242;28;20230;-90
2021/03/01 04:29:25;;;;;;;18.43;11.93;;;;;;;-3.21;92.82;100987.22;5029448;28;20230;-93
2021/03/01 04:32:16;;;;;;;18.73;12.00;;;;;;;-3.22;92.63;100980.31;5021745;28;20262;-89
2021/03/01 04:35:10;;;;;;;19.10;12.37;;;;;;;-3.20;92.61;100981.91;5004843;28;20502;-93
2021/03/01 04:38:03;;;;;;;20.33;12.50;;;;;;;-3.23;92.54;100973.41;5016886;28;20235;-95
2021/03/01 04:41:00;;;;;;;18.93;12.20;;;;;;;-2.97;92.90;101017.09;4983451;28;20223;-86
2021/03/01 04:43:52;;;;;;;20.13;13.13;;;;;;;-3.09;92.77;100996.94;5008320;28;20663;-95
2021/03/01 04:46:59;;;;;;;21.13;12.97;;;;;;;-3.09;93.05;100993.47;5022438;28;20232;-94
2021/03/01 04:49:44;;;;;;;20.63;12.77;;;;;;;-3.02;93.07;101005.22;5023470;28;20223;-92
2021/03/01 04:52:30;;;;;;;24.50;13.70;;;;;;;-3.09;92.94;100991.69;5016760;28;20356;-93
2021/03/01 04:55:25;;;;;;;25.60;18.30;;;;;;;-3.18;93.14;100972.16;5018768;28;20257;-90
2021/03/01 04:58:23;;;;;;;21.17;14.33;;;;;;;-3.09;93.27;100998.72;5016734;28;20246;-93
2021/03/01 05:01:18;;;;;;;22.70;15.23;;;;;;;-3.04;93.03;101023.69;5007386;28;20223;-90
2021/03/01 05:04:16;;;;;;;26.90;16.47;;;;;;;-3.03;93.18;101011.44;4999457;28;20280;-88
2021/03/01 05:07:16;;;;;;;23.20;15.13;;;;;;;-3.01;93.62;101002.53;5021033;28;20232;-90
2021/03/01 05:10:01;;;;;;;24.60;15.20;;;;;;;-2.85;93.47;101024.19;5007172;28;20223;-93
2021/03/01 05:12:55;;;;;;;24.53;14.47;;;;;;;-2.84;93.68;101022.38;5016231;28;20222;-91
2021/03/01 05:15:50;;;;;;;21.47;14.70;;;;;;;-2.89;93.21;101014.00;5020762;28;20230;-91
2021/03/01 05:18:43;;;;;;;29.13;17.13;;;;;;;-3.05;93.21;100987.94;5035535;28;20272;-89
2021/03/01 05:21:34;;;;;;;26.73;15.83;;;;;;;-2.72;93.99;101034.72;4995713;28;20235;-87
2021/03/01 05:24:27;;;;;;;24.00;15.60;;;;;;;-2.87;93.32;101026.06;5004474;28;20233;-86
2021/03/01 05:27:18;;;;;;;21.63;14.87;;;;;;;-2.91;93.46;101018.50;5035638;28;20230;-89
2021/03/01 05:30:14;;;;;;;25.63;15.23;;;;;;;-2.77;93.49;101029.78;5011037;28;20286;-91
2021/03/01 05:33:01;;;;;;;24.20;15.47;;;;;;;-2.80;93.14;101027.31;5015948;28;20234;-89
2021/03/01 05:35:55;;;;;;;23.63;15.20;;;;;;;-2.76;93.13;101031.47;5006950;28;20231;-86
2021/03/01 05:38:49;;;;;;;23.47;14.67;;;;;;;-2.82;93.32;101015.25;4995862;28;20310;-91
2021/03/01 05:41:41;;;;;;;25.93;15.47;;;;;;;-2.62;94.00;101037.56;4980229;28;20231;-92
2021/03/01 05:44:34;;;;;;;23.20;15.07;;;;;;;-2.53;93.12;101055.34;5001224;28;20564;-90
2021/03/01 05:47:30;;;;;;;24.40;14.70;;;;;;;-2.50;93.07;101065.63;5022598;28;20240;-91
2021/03/01 05:50:20;;;;;;;24.80;16.03;;;;;;;-2.56;93.05;101030.13;5035160;28;20229;-92
2021/03/01 05:53:18;;;;;;;26.23;16.60;;;;;;;-2.69;92.56;100985.50;5020567;28;20246;-88
2021/03/01 05:56:14;;;;;;;24.30;16.20;;;;;;;-2.55;92.31;101000.31;4999821;28;20223;-94
2021/03/01 05:59:05;;;;;;;23.07;16.43;;;;;;;-2.35;92.60;101041.81;4978992;28;20255;-87
2021/03/01 06:02:04;;;;;;;23.40;16.17;;;;;;;-2.09;92.02;101068.94;4976547;28;20231;-85
2021/03/01 06:05:04;;;;;;;22.50;15.50;;;;;;;-2.06;91.74;101063.50;4980182;28;20274;-91
2021/03/01 06:07:54;;;;;;;22.63;15.67;;;;;;;-1.96;91.07;101059.25;4977593;28;20239;-92
2021/03/01 06:10:50;;;;;;;25.33;15.70;;;;;;;-2.13;91.01;101019.34;4988749;28;20223;-89
2021/03/01 06:13:49;;;;;;;23.10;14.77;;;;;;;-1.89;90.64;101038.69;5009610;28;20223;-86
2021/03/01 06:16:32;;;;;;;24.00;15.30;;;;;;;-1.96;90.40;101017.25;4980729;28;20632;-90
2021/03/01 06:19:46;;;;;;;22.20;15.50;;;;;;;-1.45;89.97;101077.66;5009494;28;20234;-92
2021/03/01 06:22:51;;;;;;;22.33;15.13;;;;;;;-1.39;89.33;101069.31;4995585;28;20687;-94
2021/03/01 06:25:47;;;;;;;25.03;15.70;;;;;;;-1.25;88.28;101070.94;5009662;28;20234;-91
2021/03/01 06:28:43;;;;;;;22.33;15.93;;;;;;;-1.14;88.72;101065.78;4978199;28;20270;-92
2021/03/01 06:31:46;;;;;;;22.30;16.03;;;;;;;-1.27;88.21;101036.91;4985995;28;20231;-91
2021/03/01 06:34:37;;;;;;;24.60;16.40;;;;;;;-0.76;87.88;101094.59;4979771;28;20232;-91
2021/03/01 06:37:26;;;;;;;26.17;16.13;;;;;;;-0.53;87.84;101089.31;4980135;28;20239;-94
2021/03/01 06:40:37;;;;;;;21.60;15.37;;;;;;;-0.31;87.32;101091.19;4993501;28;20644;-84
2021/03/01 06:43:57;;;;;;;25.73;15.77;;;;;;;-0.14;86.89;101090.75;5025037;23;20222;31
2021/03/01 06:47:32;;;;;;;26.30;16.57;;;;;;;0.04;86.66;101091.19;5032227;23;20261;-82
2021/03/01 06:51:09;;;;;;;23.70;15.43;;;;;;;0.13;85.13;101043.03;5067555;23;20232;-81
2021/03/01 07:17:10;;;;;;;21.70;14.57;;;;;;;2.29;77.52;101115.94;4886242;29;20344;-81
2021/03/01 07:20:21;;;;;;;24.80;17.60;;;;;;;2.57;77.07;101139.06;4897826;29;20560;-82
2021/03/01 07:23:22;;;;;;;20.40;14.70;;;;;;;2.62;76.15;101133.38;4927643;23;20230;-81
2021/03/01 07:26:23;;;;;;;20.13;14.37;;;;;;;2.81;75.74;101137.94;4941402;23;20234;-82
2021/03/01 07:29:42;;;;;;;30.47;17.67;;;;;;;2.94;75.92;101139.38;4934177;23;20234;-82
2021/03/01 07:32:45;;;;;;;25.67;17.13;;;;;;;3.10;75.97;101141.53;4935875;23;20696;-81
2021/03/01 07:35:48;;;;;;;22.57;16.73;;;;;;;3.30;76.11;101145.91;4933532;29;20252;-81
2021/03/01 07:39:03;;;;;;;20.53;14.93;;;;;;;3.39;75.41;101147.75;4917570;29;20226;-81
2021/03/01 07:42:49;;;;;;;22.13;15.80;;;;;;;3.76;74.49;101152.38;4927134;23;20250;-81
2021/03/01 07:45:50;;;;;;;22.13;14.83;;;;;;;3.96;73.28;101149.59;4915723;29;20191;-81
2021/03/01 07:48:59;;;;;;;23.17;15.00;;;;;;;4.13;73.21;101158.66;4897896;29;20290;-81
2021/03/01 07:51:54;;;;;;;22.43;15.73;;;;;;;4.11;72.54;101123.47;4918463;23;20739;-82
2021/03/01 07:55:32;;;;;;;24.63;15.97;;;;;;;4.38;72.56;101149.28;4915883;29;20282;-81
2021/03/01 07:58:22;;;;;;;23.10;16.13;;;;;;;4.56;71.69;101166.13;4931461;29;20238;-81
2021/03/01 08:01:14;;;;;;;23.57;16.43;;;;;;;4.62;70.03;101141.63;4912338;29;20290;-82
2021/03/01 08:03:44;;;;;;;22.37;16.00;;;;;;;4.76;70.48;101156.25;4929758;29;20266;-82
2021/03/01 08:07:16;;;;;;;23.37;17.07;;;;;;;4.80;70.69;101163.81;4942085;23;20273;-81
2021/03/01 08:09:53;;;;;;;22.57;16.77;;;;;;;4.96;71.08;101162.34;4893987;29;20235;-81
2021/03/01 08:12:45;;;;;;;25.67;18.17;;;;;;;5.06;71.05;101152.53;4898286;29;20230;-81
2021/03/01 08:15:49;;;;;;;24.93;17.77;;;;;;;5.09;71.04;101161.03;4897565;29;20191;-81
2021/03/01 08:18:57;;;;;;;24.33;17.70;;;;;;;5.25;70.78;101161.22;4897492;29;20251;-81
2021/03/01 08:22:05;;;;;;;25.43;17.30;;;;;;;5.32;71.34;101159.63;4895469;29;20224;-81
2021/03/01 08:25:01;;;;;;;25.80;17.60;;;;;;;5.30;69.51;101156.31;4894988;29;20232;-81
2021/03/01 08:27:44;;;;;;;23.57;17.77;;;;;;;5.36;69.35;101162.88;4894972;29;20235;-81
2021/03/01 08:30:37;;;;;;;24.53;17.83;;;;;;;5.29;69.65;101154.63;4893990;29;20673;-81
2021/03/01 08:33:12;;;;;;;24.80;17.57;;;;;;;5.34;69.44;101156.84;4896154;29;20295;-81
2021/03/01 08:36:03;;;;;;;24.53;17.77;;;;;;;5.40;69.67;101158.91;4912891;23;20306;-81
2021/03/01 08:38:55;;;;;;;24.67;17.57;;;;;;;5.58;68.54;101167.75;4914791;29;20234;-81
2021/03/01 08:41:42;;;;;;;24.57;17.47;;;;;;;5.53;68.63;101143.44;4914163;29;20255;-81
2021/03/01 08:44:41;;;;;;;24.83;17.87;;;;;;;5.62;69.76;101162.97;4922155;23;20238;-82
2021/03/01 08:47:19;;;;;;;25.87;17.47;;;;;;;5.43;69.96;101158.59;4911550;29;20729;-81
2021/03/01 08:49:50;;;;;;;25.37;18.47;;;;;;;5.49;70.32;101163.34;4934515;23;20279;-81
2021/03/01 08:52:56;;;;;;;22.77;17.67;;;;;;;5.45;70.54;101161.97;4913573;23;20228;-81
2021/03/01 08:55:39;;;;;;;23.63;17.70;;;;;;;5.53;70.01;101162.03;4938043;23;20201;-82
2021/03/01 08:58:42;;;;;;;24.70;18.10;;;;;;;5.35;70.93;101145.25;4926552;23;20710;-81
2021/03/01 09:01:17;;;;;;;24.73;17.77;;;;;;;5.11;70.27;101107.75;4939836;23;20625;-81
2021/03/01 09:04:01;;;;;;;23.87;17.27;;;;;;;5.41;70.81;101155.28;4933391;29;20233;-81
2021/03/01 09:06:53;;;;;;;23.77;18.07;;;;;;;5.46;71.24;101158.31;4939664;23;21361;-81
2021/03/01 09:09:55;;;;;;;22.87;18.17;;;;;;;5.17;71.65;101155.84;4931715;29;20190;-81
2021/03/01 09:15:23;;;;;;;24.97;17.17;;;;;;;5.03;72.03;101132.41;4892693;29;20265;-81
2021/03/01 09:17:55;;;;;;;23.30;17.67;;;;;;;5.28;71.52;101144.97;4921956;23;20309;-81
2021/03/01 09:20:59;;;;;;;24.63;17.43;;;;;;;5.11;72.25;101134.31;4931075;29;20234;-81
2021/03/01 09:24:08;;;;;;;25.53;17.30;;;;;;;5.26;71.43;101146.13;4914171;29;20263;-80
2021/03/01 09:27:21;;;;;;;26.57;17.60;;;;;;;5.22;71.31;101126.16;4928491;29;20268;-81
2021/03/01 09:31:32;;;;;;;28.13;18.23;;;;;;;5.26;71.95;101128.38;4940690;23;20234;-81
2021/03/01 09:35:01;;;;;;;25.13;18.37;;;;;;;5.36;72.35;101157.53;4920219;23;20241;-81
2021/03/01 09:37:40;;;;;;;25.33;18.63;;;;;;;5.53;71.84;101158.56;4942747;23;20235;-81
2021/03/01 09:40:35;;;;;;;26.93;19.00;;;;;;;5.48;71.57;101126.25;4893581;29;20239;-81
2021/03/01 09:43:39;;;;;;;24.67;18.50;;;;;;;5.67;70.33;101153.56;4905007;29;20194;-81
2021/03/01 09:46:52;;;;;;;24.50;18.13;;;;;;;5.66;70.13;101159.84;4894431;29;20223;-81
2021/03/01 09:50:22;;;;;;;26.63;19.40;;;;;;;5.71;70.93;101140.78;4911945;29;20222;-81
2021/03/01 09:53:00;;;;;;;24.43;17.37;;;;;;;6.03;69.87;101150.91;4914645;29;20234;-81
2021/03/01 09:55:55;;;;;;;26.83;19.20;;;;;;;5.62;70.05;101157.66;4912331;29;20241;-82
2021/03/01 09:59:00;;;;;;;27.43;19.27;;;;;;;5.71;70.20;101132.81;4944186;23;20237;-81
2021/03/01 10:01:55;;;;;;;26.83;18.57;;;;;;;5.84;69.67;101159.84;4950005;23;20253;-81
2021/03/01 10:05:08;;;;;;;28.30;19.70;;;;;;;5.74;69.68;101159.09;4951695;29;20232;-81
2021/03/01 10:08:12;;;;;;;27.13;19.63;;;;;;;5.86;70.45;101139.28;4964982;23;20230;-81
2021/03/01 10:10:57;;;;;;;24.53;19.53;;;;;;;6.34;69.89;101154.00;4927617;23;20390;-81
2021/03/01 10:14:21;;;;;;;30.60;19.07;;;;;;;6.26;68.39;101153.91;4932028;29;20225;-82
2021/03/01 10:17:23;;;;;;;27.87;19.20;;;;;;;6.08;68.36;101140.66;4932725;29;20230;-81
2021/03/01 10:20:58;;;;;;;28.40;19.73;;;;;;;6.30;68.11;101155.31;4933835;29;20222;-81
2021/03/01 10:24:25;;;;;;;26.47;19.13;;;;;;;6.49;68.87;101155.09;4915212;29;20282;-80
2021/03/01 10:27:38;;;;;;;26.03;19.27;;;;;;;6.51;67.81;101150.44;4933501;29;20226;-80
2021/03/01 10:30:31;;;;;;;25.13;18.67;;;;;;;6.20;68.31;101137.56;4945965;23;20230;-80
2021/03/01 10:33:31;;;;;;;26.07;19.10;;;;;;;6.41;68.40;101149.72;4885333;29;20243;-80
2021/03/01 10:36:23;;;;;;;27.80;20.17;;;;;;;6.74;67.79;101162.25;4875941;29;20233;-80
2021/03/01 10:39:44;;;;;;;24.70;19.17;;;;;;;6.24;68.63;101162.06;4892480;23;20231;-80
2021/03/01 10:42:46;;;;;;;27.67;19.97;;;;;;;6.59;67.21;101164.66;4877595;24;20614;-81
2021/03/01 10:45:50;;;;;;;26.53;18.80;;;;;;;6.95;66.43;101154.69;4944836;23;20222;-81
2021/03/01 10:48:52;;;;;;;25.27;19.10;;;;;;;6.95;66.61;101149.34;4900438;29;20322;-80
2021/03/01 10:51:25;;;;;;;25.40;18.63;;;;;;;6.49;66.48;101117.81;4922639;23;20246;-81
2021/03/01 10:54:13;;;;;;;26.43;19.40;;;;;;;6.59;67.48;101147.84;4903325;29;20280;-81
2021/03/01 10:56:59;;;;;;;25.87;19.40;;;;;;;6.98;66.31;101161.53;4896267;29;20224;-81
2021/03/01 10:59:53;;;;;;;23.57;17.83;;;;;;;6.69;67.37;101137.06;4896301;29;20287;-81
2021/03/01 11:02:33;;;;;;;27.00;19.70;;;;;;;6.95;67.29;101159.22;4929504;23;20235;-80
2021/03/01 11:05:29;;;;;;;28.63;19.73;;;;;;;6.65;67.68;101109.94;4923347;23;20235;-81
2021/03/01 11:08:28;;;;;;;27.90;20.50;;;;;;;6.91;68.79;101132.03;4911355;23;20271;-81
2021/03/01 11:11:03;;;;;;;27.37;19.00;;;;;;;6.59;67.52;101103.41;4952495;29;20229;-81
2021/03/01 11:13:53;;;;;;;24.97;18.97;;;;;;;6.86;67.25;101150.31;4918244;29;20268;-80
2021/03/01 11:16:59;;;;;;;27.07;19.60;;;;;;;7.03;67.20;101144.09;4934603;29;20259;-81
2021/03/01 11:19:55;;;;;;;25.13;18.90;;;;;;;6.69;66.98;101099.78;4950806;29;20237;-81
2021/03/01 11:22:45;;;;;;;25.23;18.17;;;;;;;7.32;66.74;101121.53;4956794;23;20225;-81
2021/03/01 11:25:47;;;;;;;24.93;18.87;;;;;;;7.40;65.12;101143.72;4917265;29;20237;-81
2021/03/01 11:28:45;;;;;;;26.90;19.73;;;;;;;7.47;67.02;101142.06;4919244;29;20223;-80
2021/03/01 11:31:36;;;;;;;24.03;18.30;;;;;;;7.37;65.36;101140.56;4915076;29;20327;-81
2021/03/01 11:34:51;;;;;;;25.63;18.27;;;;;;;7.17;65.76;101141.81;4912372;23;20243;-81
2021/03/01 11:37:58;;;;;;;27.13;18.90;;;;;;;7.42;65.90;101146.19;5001106;23;20230;-79
2021/03/01 11:40:52;;;;;;;25.00;18.80;;;;;;;7.48;65.72;101124.22;4906428;29;20226;-80
2021/03/01 11:43:52;;;;;;;25.07;18.37;;;;;;;7.58;64.45;101137.41;4936387;29;20241;-81
2021/03/01 11:46:24;;;;;;;23.67;17.77;;;;;;;7.37;65.27;101138.69;4939860;29;20651;-81
2021/03/01 11:49:48;;;;;;;24.80;18.03;;;;;;;7.56;65.09;101100.22;4925427;29;20221;-81
2021/03/01 11:52:41;;;;;;;24.33;18.50;;;;;;;7.65;65.82;101127.78;4935145;29;20649;-81
2021/03/01 11:55:20;;;;;;;24.30;18.67;;;;;;;7.53;66.04;101114.75;4997185;23;20726;-80
2021/03/01 11:58:13;;;;;;;28.00;18.37;;;;;;;7.49;64.33;101129.41;4905996;29;20246;-81
2021/03/01 12:00:46;;;;;;;25.53;18.93;;;;;;;7.13;66.37;101100.47;4881065;29;20258;-81
2021/03/01 12:03:31;;;;;;;23.23;17.90;;;;;;;7.02;66.74;101123.75;4927303;23;20242;-81
2021/03/01 12:06:26;;;;;;;24.37;18.30;;;;;;;7.19;65.94;101108.66;4914799;29;20229;-83
2021/03/01 12:09:02;;;;;;;25.70;18.20;;;;;;;7.12;66.17;101104.97;4895399;29;20233;-81
2021/03/01 12:12:04;;;;;;;23.77;17.50;;;;;;;7.12;65.78;101117.47;4924696;29;20241;-81
2021/03/01 12:14:49;;;;;;;28.43;19.17;;;;;;;7.09;66.57;101103.44;4897358;29;20234;-81
2021/03/01 12:17:59;;;;;;;24.23;18.57;;;;;;;7.32;66.21;101122.38;4909395;29;20669;-81
2021/03/01 12:21:03;;;;;;;26.20;19.07;;;;;;;7.13;66.83;101095.16;4873946;29;20247;-81
2021/03/01 12:24:20;;;;;;;23.87;18.33;;;;;;;7.13;67.77;101124.47;4874306;29;20274;-81
2021/03/01 12:27:10;;;;;;;25.53;17.93;;;;;;;6.93;67.99;101105.22;4922746;23;20244;-81
2021/03/01 12:30:01;;;;;;;24.33;17.80;;;;;;;7.23;66.59;101110.00;4901006;29;20219;-81
2021/03/01 12:33:18;;;;;;;26.53;19.27;;;;;;;7.40;66.59;101097.56;4911838;23;20305;-81
2021/03/01 12:36:09;;;;;;;26.60;17.97;;;;;;;7.24;66.55;101097.50;4932304;29;20289;-82
2021/03/01 12:38:58;;;;;;;24.07;17.87;;;;;;;7.21;65.56;101085.34;4932900;29;20739;-81
2021/03/01 12:41:47;;;;;;;26.73;18.33;;;;;;;7.30;66.18;101102.19;4932915;29;20234;-81
2021/03/01 12:44:53;;;;;;;25.17;18.77;;;;;;;7.22;65.51;101105.69;4930795;29;20221;-81
2021/03/01 12:47:54;;;;;;;24.30;17.33;;;;;;;7.38;65.98;101113.69;4935755;23;20226;-80
2021/03/01 12:50:51;;;;;;;24.87;17.90;;;;;;;7.18;65.72;101083.00;4915235;29;20186;-81
2021/03/01 12:54:01;;;;;;;22.77;17.53;;;;;;;7.24;66.47;101108.16;4891425;29;20256;-81
2021/03/01 12:57:00;;;;;;;24.03;17.17;;;;;;;7.18;66.08;101100.84;4885452;29;20234;-81
2021/03/01 12:59:54;;;;;;;23.77;17.90;;;;;;;7.16;66.37;101094.81;4893887;29;20230;-81
2021/03/01 13:02:49;;;;;;;25.50;17.13;;;;;;;7.13;66.81;101087.16;4898885;29;20205;-82
2021/03/01 13:05:44;;;;;;;24.13;17.90;;;;;;;7.23;67.09;101095.84;4937762;23;20230;-81
2021/03/01 13:08:38;;;;;;;23.07;17.57;;;;;;;7.24;66.44;101077.00;4874480;29;20323;-81
2021/03/01 13:11:18;;;;;;;25.17;17.60;;;;;;;7.43;65.79;101066.06;4948972;23;20233;-81
2021/03/01 13:14:30;;;;;;;22.90;17.60;;;;;;;7.21;65.30;101063.19;4953213;23;20242;-81
2021/03/01 13:17:32;;;;;;;23.93;17.73;;;;;;;7.58;64.80;101086.75;4968252;23;20239;-81
2021/03/01 13:20:13;;;;;;;23.40;18.03;;;;;;;7.88;64.95;101086.09;4887693;29;20293;-82
2021/03/01 13:23:05;;;;;;;24.30;17.73;;;;;;;8.04;64.28;101067.41;4942435;29;20237;-81
2021/03/01 13:26:05;;;;;;;25.60;19.10;;;;;;;7.67;64.05;101051.91;4944294;29;20226;-81
2021/03/01 13:28:50;;;;;;;21.43;17.47;;;;;;;7.47;64.54;101074.56;4937362;29;20218;-81
2021/03/01 13:31:34;;;;;;;22.33;16.00;;;;;;;7.60;64.98;101076.75;4938685;29;20229;-82
2021/03/01 13:34:39;;;;;;;21.37;16.93;;;;;;;7.68;64.89;101068.75;4950866;29;20246;-81
2021/03/01 13:37:11;;;;;;;25.23;17.87;;;;;;;7.50;64.83;101079.56;4933779;29;20259;-81
2021/03/01 13:40:30;;;;;;;24.07;17.50;;;;;;;7.58;65.29;101095.59;4919356;29;20218;-81
2021/03/01 13:43:15;;;;;;;24.40;16.90;;;;;;;7.62;65.39;101083.56;4933385;29;20253;-81
2021/03/01 13:46:12;;;;;;;22.53;17.07;;;;;;;7.48;65.52;101082.41;4941327;23;20325;-81
2021/03/01 13:48:55;;;;;;;21.87;16.27;;;;;;;7.65;64.72;101085.91;4887004;29;20230;-81